createdAt,value
2018-10-21T00:01:25.790Z,99.90
2018-10-21T00:03:54.043Z,99.90
2018-10-21T00:06:22.211Z,99.90
2018-10-21T00:08:50.406Z,99.90
2018-10-21T00:11:18.670Z,99.90
2018-10-21T00:13:46.852Z,99.90
2018-10-21T00:16:15.078Z,99.90
2018-10-21T00:18:43.277Z,99.90
2018-10-21T00:21:11.551Z,99.90
2018-10-21T00:23:39.745Z,99.90
2018-10-21T00:26:07.936Z,99.90
2018-10-21T00:28:36.161Z,99.90
2018-10-21T00:31:04.419Z,99.90
2018-10-21T00:33:32.628Z,99.90
2018-10-21T00:36:00.828Z,99.90
2018-10-21T00:38:29.036Z,99.90
2018-10-21T00:40:57.268Z,99.90
2018-10-21T00:43:25.518Z,99.90
2018-10-21T00:45:53.723Z,99.90
2018-10-21T00:48:22.416Z,99.90
2018-10-21T00:50:50.639Z,99.90
2018-10-21T00:53:18.858Z,99.90
2018-10-21T00:55:47.089Z,99.90
2018-10-21T00:58:15.371Z,99.90
2018-10-21T01:00:43.644Z,99.90
2018-10-21T01:03:11.873Z,99.90
2018-10-21T01:05:40.094Z,99.90
2018-10-21T01:08:08.278Z,99.90
2018-10-21T01:10:36.494Z,99.90
2018-10-21T01:13:04.775Z,99.90
2018-10-21T01:15:32.969Z,99.90
2018-10-21T01:18:01.192Z,99.90
2018-10-21T01:20:29.370Z,99.90
2018-10-21T01:22:57.597Z,99.90
2018-10-21T01:25:25.825Z,99.90
2018-10-21T01:27:54.077Z,99.90
2018-10-21T01:30:22.272Z,99.90
2018-10-21T01:32:50.495Z,99.90
2018-10-21T01:35:18.699Z,99.90
2018-10-21T01:37:46.979Z,99.90
2018-10-21T01:40:32.098Z,99.90
2018-10-21T01:43:00.639Z,99.90
2018-10-21T01:45:28.874Z,99.90
2018-10-21T01:47:59.245Z,99.90
2018-10-21T01:50:27.480Z,99.90
2018-10-21T01:52:57.057Z,99.90
2018-10-21T01:55:25.661Z,99.90
2018-10-21T01:57:54.391Z,99.90
2018-10-21T02:00:22.980Z,99.90
2018-10-21T02:02:51.164Z,99.90
2018-10-21T02:05:19.413Z,99.90
2018-10-21T02:07:47.667Z,99.90
2018-10-21T02:10:15.879Z,99.90
2018-10-21T02:12:44.171Z,99.90
2018-10-21T02:15:13.134Z,99.90
2018-10-21T02:17:41.465Z,99.90
2018-10-21T02:20:10.811Z,99.90
2018-10-21T02:22:39.531Z,99.90
2018-10-21T02:25:08.094Z,99.90
2018-10-21T02:27:36.880Z,99.90
2018-10-21T02:30:08.026Z,99.90
2018-10-21T02:32:36.352Z,99.90
2018-10-21T02:35:05.577Z,99.90
2018-10-21T02:37:33.779Z,99.90
2018-10-21T02:40:02.046Z,99.90
2018-10-21T02:42:30.304Z,99.90
2018-10-21T02:44:58.578Z,99.90
2018-10-21T02:47:26.753Z,99.90
2018-10-21T02:49:54.960Z,99.90
2018-10-21T02:52:23.208Z,99.90
2018-10-21T02:54:51.396Z,99.90
2018-10-21T02:57:19.630Z,99.90
2018-10-21T02:59:47.852Z,99.90
2018-10-21T03:02:16.057Z,99.90
2018-10-21T03:04:44.267Z,99.90
2018-10-21T03:07:12.459Z,99.90
2018-10-21T03:09:40.630Z,99.90
2018-10-21T03:12:08.818Z,99.90
2018-10-21T03:14:37.052Z,99.90
2018-10-21T03:17:05.255Z,99.90
2018-10-21T03:19:33.455Z,99.90
2018-10-21T03:22:01.681Z,99.90
2018-10-21T03:24:29.870Z,99.90
2018-10-21T03:26:58.124Z,99.90
2018-10-21T03:29:26.275Z,99.90
2018-10-21T03:31:54.484Z,99.90
2018-10-21T03:34:22.714Z,99.90
2018-10-21T03:36:50.959Z,99.90
2018-10-21T03:39:19.212Z,99.90
2018-10-21T03:41:47.421Z,99.90
2018-10-21T03:44:15.671Z,99.90
2018-10-21T03:46:43.891Z,99.90
2018-10-21T03:49:12.078Z,99.90
2018-10-21T03:51:40.308Z,99.90
2018-10-21T03:54:08.530Z,99.90
2018-10-21T03:56:36.810Z,99.90
2018-10-21T03:59:05.217Z,99.90
2018-10-21T04:01:33.423Z,99.90
2018-10-21T04:04:01.665Z,99.90
2018-10-21T04:06:29.881Z,99.90
2018-10-21T04:08:58.102Z,99.90
2018-10-21T04:11:26.354Z,99.90
2018-10-21T04:13:54.592Z,99.90
2018-10-21T04:16:22.794Z,99.90
2018-10-21T04:18:51.132Z,99.90
2018-10-21T04:21:19.314Z,99.90
2018-10-21T04:23:47.492Z,99.90
2018-10-21T04:26:15.766Z,99.90
2018-10-21T04:28:43.991Z,99.90
2018-10-21T04:31:12.226Z,99.90
2018-10-21T04:33:40.535Z,99.90
2018-10-21T04:36:10.284Z,99.90
2018-10-21T04:38:49.797Z,99.90
2018-10-21T04:41:17.977Z,99.90
2018-10-21T04:43:46.215Z,99.90
2018-10-21T04:46:14.439Z,99.90
2018-10-21T04:48:42.601Z,99.90
2018-10-21T04:51:10.828Z,99.90
2018-10-21T04:53:39.103Z,99.90
2018-10-21T04:56:07.402Z,99.90
2018-10-21T04:58:35.644Z,99.90
2018-10-21T05:01:03.835Z,99.90
2018-10-21T05:03:32.072Z,99.90
2018-10-21T05:06:00.308Z,99.90
2018-10-21T05:08:28.529Z,99.90
2018-10-21T05:10:56.748Z,99.90
2018-10-21T05:39:54.731Z,99.90
2018-10-21T05:42:23.783Z,99.90
2018-10-21T05:46:09.010Z,99.90
2018-10-21T05:48:54.256Z,99.90
2018-10-21T05:51:24.477Z,99.90
2018-10-21T06:07:02.461Z,99.90
2018-10-21T06:09:31.628Z,99.90
2018-10-21T06:12:00.586Z,99.90
2018-10-21T06:15:01.433Z,99.90
2018-10-21T06:20:24.603Z,99.90
2018-10-21T06:22:54.244Z,99.90
2018-10-21T06:25:44.214Z,99.90
2018-10-21T06:28:32.576Z,99.90
2018-10-21T06:31:01.336Z,99.90
2018-10-21T06:33:30.146Z,99.90
2018-10-21T06:36:00.782Z,99.90
2018-10-21T06:38:29.718Z,99.90
2018-10-21T06:40:58.671Z,99.90
2018-10-21T06:52:06.892Z,99.90
2018-10-21T06:54:38.056Z,99.90
2018-10-21T06:57:07.712Z,99.90
2018-10-21T06:59:36.267Z,99.90
2018-10-21T07:02:05.481Z,99.90
2018-10-21T07:04:33.996Z,99.90
2018-10-21T07:07:02.930Z,99.90
2018-10-21T07:09:32.133Z,99.90
2018-10-21T07:12:00.818Z,99.90
2018-10-21T07:14:29.860Z,99.90
2018-10-21T07:17:03.844Z,99.90
2018-10-21T07:19:32.790Z,99.90
2018-10-21T07:22:01.850Z,99.90
2018-10-21T07:24:30.519Z,99.90
2018-10-21T07:26:59.741Z,99.90
2018-10-21T07:29:34.343Z,99.90
2018-10-21T07:32:03.014Z,99.90
2018-10-21T07:34:32.131Z,99.90
2018-10-21T07:37:01.362Z,99.90
2018-10-21T07:39:30.120Z,99.90
2018-10-21T07:42:07.165Z,99.90
2018-10-21T07:44:51.526Z,99.90
2018-10-21T07:47:20.430Z,99.90
2018-10-21T07:49:49.954Z,99.90
2018-10-21T07:52:20.237Z,99.90
2018-10-21T07:54:54.780Z,99.90
2018-10-21T07:57:24.066Z,99.90
2018-10-21T08:02:59.133Z,99.90
2018-10-21T08:11:00.357Z,99.90
2018-10-21T08:13:28.846Z,99.90
2018-10-21T08:15:57.488Z,99.90
2018-10-21T08:18:26.236Z,99.90
2018-10-21T08:20:54.780Z,99.90
2018-10-21T08:23:23.439Z,99.90
2018-10-21T08:25:52.164Z,99.90
2018-10-21T08:28:20.685Z,99.90
2018-10-21T08:30:49.291Z,99.90
2018-10-21T08:33:17.837Z,99.90
2018-10-21T08:35:46.514Z,99.90
2018-10-21T08:38:15.005Z,99.90
2018-10-21T08:40:43.626Z,99.90
2018-10-21T08:43:12.313Z,99.90
2018-10-21T08:45:41.912Z,99.90
2018-10-21T08:48:11.362Z,99.90
2018-10-21T08:50:39.945Z,99.90
2018-10-21T08:53:08.486Z,99.90
2018-10-21T08:55:37.380Z,99.90
2018-10-21T08:58:05.967Z,99.90
2018-10-21T09:00:34.547Z,99.90
2018-10-21T09:03:03.133Z,99.90
2018-10-21T09:05:34.260Z,99.90
2018-10-21T09:08:02.623Z,99.90
2018-10-21T09:10:31.292Z,99.90
2018-10-21T09:12:59.958Z,99.90
2018-10-21T09:15:28.839Z,99.90
2018-10-21T09:17:57.237Z,99.90
2018-10-21T09:20:41.221Z,99.90
2018-10-21T09:23:10.092Z,99.90
2018-10-21T09:25:38.708Z,99.90
2018-10-21T09:28:07.489Z,99.90
2018-10-21T09:30:36.396Z,99.90
2018-10-21T09:33:04.899Z,99.90
2018-10-21T09:35:33.641Z,99.90
2018-10-21T09:38:09.845Z,99.90
2018-10-21T09:40:38.409Z,99.90
2018-10-21T09:43:07.406Z,98.90
2018-10-21T09:45:36.038Z,98.30
2018-10-21T09:48:04.921Z,99.10
2018-10-21T09:50:40.925Z,98.30
2018-10-21T09:53:09.406Z,97.90
2018-10-21T09:55:38.094Z,98.30
2018-10-21T09:58:06.747Z,98.40
2018-10-21T10:00:40.399Z,97.00
2018-10-21T10:03:12.361Z,97.00
2018-10-21T10:05:40.965Z,96.50
2018-10-21T10:08:09.441Z,97.30
2018-10-21T10:10:38.032Z,95.20
2018-10-21T10:13:08.518Z,93.50
2018-10-21T10:15:36.998Z,93.00
2018-10-21T10:18:06.905Z,93.70
2018-10-21T10:20:35.503Z,92.50
2018-10-21T10:23:06.189Z,92.30
2018-10-21T10:25:34.677Z,91.40
2018-10-21T10:28:03.315Z,90.40
2018-10-21T10:30:31.975Z,91.20
2018-10-21T10:33:00.702Z,90.40
2018-10-21T10:35:29.204Z,88.80
2018-10-21T10:37:57.690Z,88.80
2018-10-21T10:40:26.244Z,82.80
2018-10-21T10:42:54.720Z,84.40
2018-10-21T10:45:23.137Z,82.80
2018-10-21T10:47:51.541Z,82.30
2018-10-21T10:50:20.144Z,80.90
2018-10-21T10:52:48.651Z,80.70
2018-10-21T10:55:17.743Z,81.00
2018-10-21T10:57:46.154Z,82.60
2018-10-21T11:00:14.695Z,78.80
2018-10-21T11:02:43.023Z,74.80
2018-10-21T11:05:11.585Z,77.30
2018-10-21T11:07:46.608Z,74.10
2018-10-21T11:10:15.003Z,71.00
2018-10-21T11:12:43.395Z,71.50
2018-10-21T11:15:11.778Z,71.70
2018-10-21T11:17:40.063Z,71.60
2018-10-21T11:20:08.328Z,69.90
2018-10-21T11:22:36.686Z,69.30
2018-10-21T11:25:07.018Z,65.80
2018-10-21T11:27:35.319Z,68.00
2018-10-21T11:30:03.536Z,67.20
2018-10-21T11:32:31.846Z,66.80
2018-10-21T11:35:00.160Z,69.80
2018-10-21T11:37:28.545Z,67.10
2018-10-21T11:39:56.674Z,66.40
2018-10-21T11:42:24.880Z,65.70
2018-10-21T11:44:53.094Z,63.20
2018-10-21T11:47:21.255Z,62.00
2018-10-21T11:49:49.500Z,62.00
2018-10-21T11:52:17.821Z,61.00
2018-10-21T11:54:45.925Z,61.20
2018-10-21T11:57:14.099Z,60.70
2018-10-21T11:59:42.317Z,61.40
2018-10-21T12:02:10.528Z,60.70
2018-10-21T12:04:38.719Z,61.80
2018-10-21T12:07:06.957Z,60.60
2018-10-21T12:09:35.163Z,59.90
2018-10-21T12:12:03.353Z,58.60
2018-10-21T12:14:31.565Z,60.00
2018-10-21T12:16:59.782Z,58.70
2018-10-21T12:19:27.967Z,57.80
2018-10-21T12:21:56.217Z,57.80
2018-10-21T12:24:24.442Z,57.80
2018-10-21T12:26:52.698Z,61.50
2018-10-21T12:29:21.111Z,58.50
2018-10-21T12:31:49.187Z,59.60
2018-10-21T12:34:17.403Z,62.50
2018-10-21T12:36:45.619Z,59.40
2018-10-21T12:39:13.836Z,58.60
2018-10-21T12:41:42.708Z,56.20
2018-10-21T12:44:10.931Z,58.40
2018-10-21T12:46:39.580Z,55.90
2018-10-21T12:49:08.063Z,56.60
2018-10-21T12:51:36.221Z,58.30
2018-10-21T12:54:04.756Z,59.80
2018-10-21T12:56:32.931Z,57.90
2018-10-21T12:59:01.165Z,58.40
2018-10-21T13:01:29.395Z,57.70
2018-10-21T13:03:57.627Z,56.70
2018-10-21T13:06:25.856Z,56.80
2018-10-21T13:08:54.141Z,57.80
2018-10-21T13:11:22.543Z,55.90
2018-10-21T13:13:50.746Z,55.40
2018-10-21T13:16:18.930Z,54.90
2018-10-21T13:18:47.129Z,55.60
2018-10-21T13:21:15.323Z,57.40
2018-10-21T13:23:43.554Z,56.20
2018-10-21T13:26:11.777Z,55.00
2018-10-21T13:28:40.001Z,57.40
2018-10-21T13:31:08.193Z,55.10
2018-10-21T13:33:36.397Z,55.10
2018-10-21T13:36:05.059Z,55.50
2018-10-21T13:38:33.385Z,55.20
2018-10-21T13:41:01.746Z,54.60
2018-10-21T13:43:29.930Z,54.80
2018-10-21T13:45:58.293Z,54.10
2018-10-21T13:48:26.519Z,54.20
2018-10-21T13:50:54.700Z,54.30
2018-10-21T13:53:22.950Z,53.30
2018-10-21T13:55:51.122Z,53.60
2018-10-21T13:58:19.344Z,52.00
2018-10-21T14:00:47.667Z,52.10
2018-10-21T14:03:15.833Z,50.00
2018-10-21T14:05:44.027Z,48.00
2018-10-21T14:08:12.225Z,49.50
2018-10-21T14:10:40.454Z,51.60
2018-10-21T14:13:08.721Z,52.40
2018-10-21T14:15:36.895Z,54.80
2018-10-21T14:18:05.165Z,57.20
2018-10-21T14:20:33.372Z,59.40
2018-10-21T14:23:01.572Z,60.20
2018-10-21T14:25:29.784Z,59.60
2018-10-21T14:27:58.003Z,62.10
2018-10-21T14:30:26.240Z,62.20
2018-10-21T14:32:54.477Z,61.50
2018-10-21T14:35:22.678Z,62.80
2018-10-21T14:37:50.955Z,63.10
2018-10-21T14:40:19.183Z,63.40
2018-10-21T14:42:47.358Z,63.60
2018-10-21T14:45:15.679Z,64.40
2018-10-21T14:47:43.840Z,66.20
2018-10-21T14:50:12.650Z,65.80
2018-10-21T14:52:40.847Z,67.90
2018-10-21T14:55:10.033Z,69.60
2018-10-21T14:57:38.597Z,69.40
2018-10-21T15:00:08.569Z,69.30
2018-10-21T15:02:36.694Z,70.40
2018-10-21T15:05:07.187Z,70.90
2018-10-21T15:07:35.361Z,71.00
2018-10-21T15:10:03.929Z,71.20
2018-10-21T15:12:32.087Z,71.00
2018-10-21T15:15:00.258Z,72.70
2018-10-21T15:17:28.488Z,75.20
2018-10-21T15:19:56.690Z,75.30
2018-10-21T15:22:24.901Z,82.80
2018-10-21T15:24:53.094Z,77.10
2018-10-21T15:27:21.310Z,76.50
2018-10-21T15:29:49.667Z,79.40
2018-10-21T15:32:17.953Z,83.20
2018-10-21T15:34:46.226Z,80.30
2018-10-21T15:37:14.412Z,81.20
2018-10-21T15:39:42.702Z,81.20
2018-10-21T15:42:10.819Z,81.00
2018-10-21T15:44:39.029Z,79.30
2018-10-21T15:47:07.261Z,82.00
2018-10-21T15:49:35.445Z,81.70
2018-10-21T15:52:03.643Z,86.00
2018-10-21T15:54:32.559Z,86.60
2018-10-21T15:57:00.759Z,87.80
2018-10-21T15:59:29.181Z,87.90
2018-10-21T16:01:57.417Z,86.50
2018-10-21T16:04:25.585Z,91.20
2018-10-21T16:06:53.819Z,90.60
2018-10-21T16:09:22.019Z,91.40
2018-10-21T16:11:50.264Z,91.30
2018-10-21T16:14:18.537Z,91.90
2018-10-21T16:16:46.717Z,93.60
2018-10-21T16:19:14.980Z,94.70
2018-10-21T16:21:43.254Z,94.60
2018-10-21T16:24:11.519Z,94.60
2018-10-21T16:26:39.787Z,94.50
2018-10-21T16:29:08.142Z,95.60
2018-10-21T16:31:36.374Z,96.80
2018-10-21T16:34:04.909Z,98.10
2018-10-21T16:36:33.121Z,99.10
2018-10-21T16:39:01.327Z,99.90
2018-10-21T16:41:32.645Z,99.90
2018-10-21T16:44:00.827Z,99.90
2018-10-21T16:46:29.088Z,99.90
2018-10-21T16:48:57.384Z,99.90
2018-10-21T16:51:25.748Z,99.90
2018-10-21T16:53:53.989Z,99.90
2018-10-21T16:56:22.148Z,99.90
2018-10-21T16:58:50.359Z,99.90
2018-10-21T17:01:18.575Z,99.90
2018-10-21T17:03:46.817Z,99.90
2018-10-21T17:06:15.128Z,99.90
2018-10-21T17:08:43.309Z,99.90
2018-10-21T17:11:11.627Z,99.90
2018-10-21T17:13:39.675Z,99.90
2018-10-21T17:16:08.149Z,99.90
2018-10-21T17:18:36.512Z,99.90
2018-10-21T17:21:05.045Z,99.90
2018-10-21T17:23:33.349Z,99.90
2018-10-21T17:26:01.590Z,99.90
2018-10-21T17:28:29.807Z,99.90
2018-10-21T17:30:58.116Z,99.90
2018-10-21T17:33:26.391Z,99.90
2018-10-21T17:35:56.745Z,99.90
2018-10-21T17:38:24.943Z,99.90
2018-10-21T17:40:53.137Z,99.90
2018-10-21T17:43:21.395Z,99.90
2018-10-21T17:45:49.602Z,99.90
2018-10-21T17:48:17.837Z,99.90
2018-10-21T17:50:46.109Z,99.90
2018-10-21T17:53:14.556Z,99.90
2018-10-21T17:55:42.827Z,99.90
2018-10-21T17:58:11.293Z,99.90
2018-10-21T18:00:39.611Z,99.90
2018-10-21T18:03:07.796Z,99.90
2018-10-21T18:05:36.045Z,99.90
2018-10-21T18:08:04.295Z,99.90
2018-10-21T18:10:32.577Z,99.90
2018-10-21T18:13:00.845Z,99.90
2018-10-21T18:15:29.092Z,99.90
2018-10-21T18:17:57.457Z,99.90
2018-10-21T18:20:25.861Z,99.90
2018-10-21T18:22:54.125Z,99.90
2018-10-21T18:25:22.344Z,99.90
2018-10-21T18:27:50.647Z,99.90
2018-10-21T18:30:18.841Z,99.90
2018-10-21T18:32:47.133Z,99.90
2018-10-21T18:35:16.117Z,99.90
2018-10-21T18:37:44.361Z,99.90
2018-10-21T18:40:12.984Z,99.90
2018-10-21T18:42:41.608Z,99.90
2018-10-21T18:45:11.641Z,99.90
2018-10-21T18:47:39.909Z,99.90
2018-10-21T18:50:10.108Z,99.90
2018-10-21T18:52:38.376Z,99.90
2018-10-21T18:55:07.236Z,99.90
2018-10-21T18:57:35.467Z,99.90
2018-10-21T19:00:03.797Z,99.90
2018-10-21T19:02:32.071Z,99.90
2018-10-21T19:05:00.423Z,99.90
2018-10-21T19:07:28.788Z,99.90
2018-10-21T19:09:57.091Z,99.90
2018-10-21T19:12:25.463Z,99.90
2018-10-21T19:14:54.762Z,99.90
2018-10-21T19:17:23.079Z,99.90
2018-10-21T19:19:51.473Z,99.90
2018-10-21T19:22:19.708Z,99.90
2018-10-21T19:24:47.961Z,99.90
2018-10-21T19:27:16.178Z,99.90
2018-10-21T19:29:44.436Z,99.90
2018-10-21T19:32:12.717Z,99.90
2018-10-21T19:34:41.060Z,99.90
2018-10-21T19:37:09.263Z,99.90
2018-10-21T19:39:37.580Z,99.90
2018-10-21T19:42:05.814Z,99.90
2018-10-21T19:44:34.205Z,99.90
2018-10-21T19:47:02.553Z,99.90
2018-10-21T19:49:30.747Z,99.90
2018-10-21T19:51:59.119Z,99.90
2018-10-21T19:54:27.373Z,99.90
2018-10-21T19:56:55.702Z,99.90
2018-10-21T19:59:23.919Z,99.90
2018-10-21T20:01:52.248Z,99.90
2018-10-21T20:36:37.810Z,99.90
2018-10-21T20:39:39.208Z,99.90
2018-10-21T21:23:42.981Z,99.90
2018-10-21T21:32:34.876Z,99.90
2018-10-21T21:40:57.465Z,99.90
2018-10-21T21:55:02.888Z,99.90
